Time;durP1;ratioP1;P1;durP2;ratioP2;P2;SDS_P1;SDS_P2;PMS_P1;PMS_P2;Temp;Humidity;BMP_temperature;BMP_pressure;BME280_temperature;BME280_humidity;BME280_pressure;Samples;Min_cycle;Max_cycle;Signal;HPM_P1;HPM_P2
2023/07/10 06:46:18;;;;;;;11.80;4.28;;;;;;;25.42;63.10;97055.38;2085203;28;20544;-58
2023/07/10 06:47:20;;;;;;;11.93;4.28;;;;;;;25.45;62.72;97040.84;2082683;28;20219;-58
2023/07/10 06:50:02;;;;;;;8.77;3.78;;;;;;;25.98;62.06;97047.16;2088577;28;21079;-57
2023/07/10 06:51:06;;;;;;;10.68;4.85;;;;;;;25.96;61.84;97046.47;2078425;28;20204;-56
2023/07/10 06:53:37;;;;;;;9.55;4.80;;;;;;;25.75;62.17;97046.81;2086111;28;20560;-57
2023/07/10 06:56:16;;;;;;;11.00;4.68;;;;;;;25.66;62.65;97045.03;2115528;27;20539;-57
2023/07/10 06:58:56;;;;;;;16.33;4.57;;;;;;;25.81;62.57;97040.81;2100454;27;20561;-57
2023/07/10 07:01:32;;;;;;;8.57;4.00;;;;;;;25.69;62.81;97042.09;2082769;28;20567;-57
2023/07/10 07:02:34;;;;;;;7.53;4.18;;;;;;;25.62;62.72;97047.19;2078228;28;20339;-56
2023/07/10 07:03:38;;;;;;;16.75;4.65;;;;;;;25.81;62.66;97043.50;2078160;28;20201;-57
2023/07/10 07:04:41;;;;;;;6.63;3.67;;;;;;;25.83;62.30;97048.72;2078682;28;20201;-57
2023/07/10 07:05:43;;;;;;;14.65;4.25;;;;;;;25.94;62.34;97053.81;2074890;28;20219;-57
2023/07/10 07:08:36;;;;;;;6.85;3.55;;;;;;;25.97;62.15;97063.38;2100165;27;20561;-56
2023/07/10 07:09:38;;;;;;;9.35;4.20;;;;;;;26.13;62.08;97073.38;2098960;28;20196;-58
2023/07/10 07:10:41;;;;;;;10.65;4.00;;;;;;;26.16;61.41;97071.22;2083985;28;20263;-57
2023/07/10 07:11:43;;;;;;;13.48;4.68;;;;;;;26.13;61.43;97071.53;2080262;28;20189;-57
2023/07/10 07:12:44;;;;;;;8.32;4.40;;;;;;;26.06;61.50;97065.97;2082715;28;20585;-57
2023/07/10 07:15:38;;;;;;;11.18;4.07;;;;;;;25.75;62.65;97071.72;2093044;27;20584;-58
2023/07/10 07:16:40;;;;;;;9.82;4.35;;;;;;;25.89;62.72;97074.81;2089140;28;20235;-58
2023/07/10 07:17:41;;;;;;;7.57;3.70;;;;;;;25.89;62.52;97070.31;2088180;28;20192;-58
2023/07/10 07:20:38;;;;;;;7.75;3.45;;;;;;;26.20;62.08;97080.59;2095074;27;20571;-56
2023/07/10 07:21:39;;;;;;;9.63;4.50;;;;;;;26.45;61.75;97067.41;2087230;28;20189;-57
2023/07/10 07:22:41;;;;;;;7.50;3.83;;;;;;;26.61;61.02;97077.34;2087760;28;20205;-57
2023/07/10 07:23:42;;;;;;;10.65;3.97;;;;;;;26.70;61.15;97081.75;2084810;28;20199;-57
2023/07/10 07:24:44;;;;;;;6.18;3.67;;;;;;;26.99;61.01;97088.59;2087836;28;20184;-57
2023/07/10 07:25:45;;;;;;;8.20;3.83;;;;;;;27.19;60.12;97086.50;2089448;28;21106;-57
2023/07/10 07:26:47;;;;;;;11.48;4.18;;;;;;;26.98;60.21;97086.09;2087544;28;20225;-57
2023/07/10 07:27:52;;;;;;;12.88;4.20;;;;;;;27.19;60.09;97089.19;2084674;28;20215;-57
2023/07/10 07:28:54;;;;;;;7.18;3.83;;;;;;;27.17;60.05;97088.53;2085718;28;20200;-57
2023/07/10 07:29:55;;;;;;;7.80;4.10;;;;;;;27.15;60.25;97095.03;2089074;28;21055;-57
2023/07/10 07:31:04;;;;;;;32.25;21.13;;;;;;;27.03;60.41;97091.78;2082910;28;20679;-57
2023/07/10 07:32:08;;;;;;;10.57;4.65;;;;;;;27.16;59.65;97102.06;2088704;28;20627;-57
2023/07/10 07:33:10;;;;;;;9.45;4.78;;;;;;;27.14;60.03;97101.41;2086246;28;20199;-57
2023/07/10 07:34:14;;;;;;;7.00;3.95;;;;;;;27.05;60.29;97098.66;2089667;28;20195;-57
2023/07/10 07:35:16;;;;;;;12.57;5.25;;;;;;;27.00;59.71;97109.03;2083966;28;20263;-57
2023/07/10 07:36:17;;;;;;;14.65;6.78;;;;;;;26.93;60.50;97105.34;2087759;28;20280;-57
2023/07/10 07:39:28;;;;;;;9.13;4.57;;;;;;;26.44;61.69;97113.06;2084092;28;20548;-57
2023/07/10 07:40:29;;;;;;;26.85;10.35;;;;;;;26.47;61.71;97113.56;2076478;28;20231;-57
2023/07/10 07:41:32;;;;;;;10.68;4.25;;;;;;;26.46;61.64;97113.75;2080776;28;20204;-57
2023/07/10 07:42:33;;;;;;;16.17;4.80;;;;;;;26.12;62.46;97120.69;2078929;28;20235;-57
2023/07/10 07:43:35;;;;;;;10.52;5.57;;;;;;;26.05;62.71;97116.94;2079361;28;20192;-57
2023/07/10 07:46:38;;;;;;;13.55;3.47;;;;;;;26.46;62.42;97122.63;2085380;28;21083;-57
2023/07/10 07:47:40;;;;;;;9.88;4.40;;;;;;;26.31;62.47;97124.16;2089940;28;20207;-57
2023/07/10 07:48:42;;;;;;;8.82;5.03;;;;;;;26.04;63.14;97129.47;2091889;28;20204;-57
2023/07/10 07:49:44;;;;;;;11.18;4.70;;;;;;;26.04;63.13;97120.59;2083311;28;20192;-57
2023/07/10 07:53:06;;;;;;;12.88;5.22;;;;;;;25.79;63.99;97114.19;2086022;28;20568;-57
2023/07/10 07:54:11;;;;;;;9.38;4.85;;;;;;;25.95;63.93;97127.69;2082993;28;20296;-56
2023/07/10 07:55:13;;;;;;;12.40;3.88;;;;;;;26.17;63.46;97121.06;2075289;28;20192;-57
2023/07/10 07:56:14;;;;;;;11.00;4.72;;;;;;;26.43;63.21;97124.78;2070883;28;20801;-57
2023/07/10 07:57:16;;;;;;;8.75;3.95;;;;;;;26.76;62.97;97112.44;2070615;28;20244;-57
2023/07/10 07:58:17;;;;;;;8.27;4.25;;;;;;;26.94;62.16;97120.38;2071088;28;20278;-57
2023/07/10 07:59:19;;;;;;;12.07;4.43;;;;;;;27.18;61.47;97118.81;2074372;28;20197;-57
2023/07/10 08:00:20;;;;;;;8.38;3.53;;;;;;;27.52;60.83;97115.28;2073064;28;20284;-57
2023/07/10 08:01:23;;;;;;;8.90;4.25;;;;;;;27.64;60.12;97115.78;2073476;28;20719;-57
2023/07/10 08:02:25;;;;;;;13.80;5.00;;;;;;;28.21;59.14;97108.81;2074106;28;20290;-57
2023/07/10 08:03:28;;;;;;;9.93;3.92;;;;;;;28.64;58.45;97118.31;2066180;28;20791;-57
2023/07/10 08:04:29;;;;;;;7.60;3.63;;;;;;;28.60;58.08;97114.28;2068070;28;20760;-57
2023/07/10 08:05:31;;;;;;;13.90;4.80;;;;;;;28.72;57.44;97113.97;2067943;28;21121;-57
2023/07/10 08:06:36;;;;;;;9.80;4.45;;;;;;;28.76;58.20;97110.78;2068479;28;20240;-57
2023/07/10 08:07:38;;;;;;;10.82;5.15;;;;;;;28.90;57.06;97111.91;2069975;28;20255;-57
2023/07/10 08:08:40;;;;;;;8.48;5.15;;;;;;;28.94;57.17;97109.72;2070251;28;20289;-57
2023/07/10 08:09:41;;;;;;;10.80;7.80;;;;;;;28.84;57.10;97110.72;2072917;28;20209;-57
2023/07/10 08:10:46;;;;;;;12.40;8.50;;;;;;;28.92;56.84;97107.19;2071835;28;20225;-57
2023/07/10 08:11:47;;;;;;;16.35;12.50;;;;;;;28.77;57.08;97106.22;2071196;28;20427;-57
2023/07/10 08:12:49;;;;;;;20.58;13.68;;;;;;;29.10;56.97;97108.78;2072105;28;20218;-57
2023/07/10 08:13:50;;;;;;;21.37;16.97;;;;;;;29.06;57.38;97113.69;2073933;28;20204;-57
2023/07/10 08:14:52;;;;;;;19.52;17.23;;;;;;;28.86;57.37;97102.50;2071636;28;20820;-57
2023/07/10 08:15:53;;;;;;;22.40;15.40;;;;;;;29.13;56.98;97109.28;2071500;28;20216;-57
2023/07/10 08:16:55;;;;;;;19.17;16.03;;;;;;;29.26;56.84;97108.72;2074169;28;20442;-57
2023/07/10 08:17:57;;;;;;;27.67;23.97;;;;;;;29.34;56.58;97102.50;2068856;28;20439;-57
2023/07/10 08:18:58;;;;;;;32.00;28.20;;;;;;;29.04;57.26;97101.44;2070079;28;21016;-57
2023/07/10 08:20:00;;;;;;;32.60;29.07;;;;;;;28.95;57.15;97106.00;2068238;28;20432;-57
2023/07/10 08:21:06;;;;;;;38.73;31.03;;;;;;;28.99;56.97;97094.72;2068201;28;20466;-57
2023/07/10 08:22:08;;;;;;;47.77;36.93;;;;;;;29.04;57.07;97107.66;2067512;28;20546;-57
2023/07/10 08:23:09;;;;;;;46.00;37.53;;;;;;;28.97;56.47;97109.34;2072474;28;20502;-57
2023/07/10 08:24:11;;;;;;;48.57;39.67;;;;;;;28.78;57.51;97110.59;2075165;28;20485;-57
2023/07/10 08:25:13;;;;;;;64.63;51.70;;;;;;;28.66;57.25;97100.22;2075375;28;20902;-57
2023/07/10 08:26:14;;;;;;;48.90;42.27;;;;;;;28.81;56.48;97092.28;2073078;28;20431;-57
2023/07/10 08:27:16;;;;;;;51.43;38.43;;;;;;;28.59;57.02;97095.69;2071775;28;20434;-57
2023/07/10 08:28:17;;;;;;;51.33;42.70;;;;;;;28.77;57.31;97104.41;2070326;28;20810;-57
2023/07/10 08:29:31;;;;;;;71.97;55.63;;;;;;;28.57;57.63;97101.22;2070075;28;20499;-57
2023/07/10 08:30:32;;;;;;;50.33;41.60;;;;;;;28.86;57.67;97102.50;2072950;28;20604;-57
2023/07/10 08:31:34;;;;;;;47.17;35.37;;;;;;;29.00;56.76;97106.31;2073202;28;20929;-57
2023/07/10 08:32:36;;;;;;;44.73;34.63;;;;;;;29.04;56.18;97101.44;2069832;28;20462;-57
2023/07/10 08:33:38;;;;;;;49.33;43.10;;;;;;;28.99;57.07;97091.22;2068945;28;20455;-57
2023/07/10 08:34:40;;;;;;;52.07;35.67;;;;;;;29.52;55.69;97096.00;2071666;28;20530;-57
2023/07/10 08:35:41;;;;;;;54.43;44.27;;;;;;;29.42;55.61;97086.31;2069212;28;20868;-57
2023/07/10 08:36:43;;;;;;;60.10;48.83;;;;;;;29.43;56.14;97089.84;2072960;28;20427;-57
2023/07/10 08:37:44;;;;;;;54.20;42.80;;;;;;;29.39;56.24;97080.47;2074461;28;20438;-57
2023/07/10 08:38:46;;;;;;;55.07;40.83;;;;;;;29.52;56.24;97090.63;2074154;28;20422;-57
2023/07/10 08:39:49;;;;;;;58.93;48.60;;;;;;;29.61;55.56;97090.41;2071952;28;20497;-57
2023/07/10 08:40:55;;;;;;;66.30;46.07;;;;;;;29.61;55.04;97092.25;2072538;28;20506;-57
2023/07/10 08:42:11;;;;;;;73.77;54.40;;;;;;;29.62;55.89;97097.47;2070880;28;20432;-57
2023/07/10 08:43:34;;;;;;;121.33;100.57;;;;;;;29.73;54.55;97095.38;2072499;28;20437;-57
2023/07/10 08:44:37;;;;;;;27.10;20.67;;;;;;;29.60;54.64;97085.22;2072246;28;20423;-57
2023/07/10 08:45:40;;;;;;;60.97;54.97;;;;;;;29.90;54.74;97101.50;2070905;28;20452;-57
2023/07/10 08:46:42;;;;;;;105.27;88.57;;;;;;;30.15;53.84;97096.75;2071361;28;20431;-57
2023/07/10 08:47:49;;;;;;;56.20;51.13;;;;;;;30.22;53.71;97099.53;2070481;28;20423;-57
2023/07/10 08:49:07;;;;;;;76.23;69.90;;;;;;;29.96;53.93;97103.47;2070981;28;20429;-57
2023/07/10 08:50:25;;;;;;;459.87;421.83;;;;;;;30.03;53.96;97093.66;2072806;28;20510;-57
2023/07/10 08:51:59;;;;;;;145.40;133.73;;;;;;;30.21;53.88;97098.72;2075200;28;20441;-57
2023/07/10 08:53:11;;;;;;;280.17;257.47;;;;;;;30.09;53.75;97101.03;2073806;28;20477;-57
2023/07/10 08:54:18;;;;;;;95.53;86.97;;;;;;;29.71;54.99;97100.09;2072979;28;20439;-57
2023/07/10 08:55:27;;;;;;;28.03;25.23;;;;;;;29.52;55.47;97104.09;2061260;28;20455;-57
2023/07/10 08:57:07;;;;;;;38.90;34.37;;;;;;;29.81;55.54;97106.94;2063602;28;20423;-57
2023/07/10 08:58:21;;;;;;;34.83;31.40;;;;;;;30.17;54.33;97104.63;2069733;28;20447;-57
2023/07/10 09:00:04;;;;;;;51.23;46.60;;;;;;;29.93;55.08;97099.28;2069923;28;20685;-57
2023/07/10 09:01:35;;;;;;;84.60;78.03;;;;;;;30.15;54.74;97104.00;2070544;28;20431;-57
2023/07/10 09:03:04;;;;;;;41.53;36.43;;;;;;;30.67;54.24;97107.75;2072696;28;20451;-57
2023/07/10 09:04:11;;;;;;;688.53;631.90;;;;;;;30.73;53.41;97110.53;2066830;28;20482;-57
2023/07/10 09:05:26;;;;;;;691.23;622.27;;;;;;;30.46;53.03;97109.25;2066009;28;20424;-56
2023/07/10 09:06:39;;;;;;;1690.73;999.90;;;;;;;30.16;53.64;97108.34;2064930;28;20432;-57
2023/07/10 09:07:43;;;;;;;1488.70;999.90;;;;;;;30.35;53.38;97121.31;2063521;28;20435;-57
2023/07/10 09:08:48;;;;;;;1633.67;999.90;;;;;;;29.97;53.80;97116.75;2064947;28;20424;-57
2023/07/10 09:09:55;;;;;;;1393.60;999.90;;;;;;;29.93;54.04;97112.75;2063726;28;20508;-57
2023/07/10 09:11:02;;;;;;;1113.73;979.20;;;;;;;30.10;53.98;97121.50;2066301;28;20467;-57
2023/07/10 09:12:20;;;;;;;1593.27;999.90;;;;;;;30.07;53.37;97115.69;2068732;28;20489;-57
2023/07/10 09:13:36;;;;;;;1653.47;999.90;;;;;;;30.23;53.50;97120.94;2065152;28;20471;-57
2023/07/10 09:15:05;;;;;;;1808.17;999.90;;;;;;;30.15;53.65;97112.09;2066183;28;20439;-57
2023/07/10 09:16:14;;;;;;;1791.23;999.90;;;;;;;30.17;53.19;97126.19;2063745;28;20440;-57
2023/07/10 09:17:31;;;;;;;1789.03;999.90;;;;;;;29.85;54.08;97112.75;2065463;28;20436;-57
2023/07/10 09:18:46;;;;;;;1832.10;999.90;;;;;;;29.69;54.16;97108.34;2062932;28;20440;-57
2023/07/10 09:19:52;;;;;;;1880.67;999.90;;;;;;;29.82;53.41;97107.75;2068332;28;20431;-58
2023/07/10 09:20:58;;;;;;;1806.53;999.90;;;;;;;29.74;53.65;97105.97;2065454;28;20456;-57
2023/07/10 09:21:59;;;;;;;1450.60;999.90;;;;;;;29.92;53.51;97107.53;2064589;28;20435;-58
2023/07/10 09:23:05;;;;;;;1135.37;996.77;;;;;;;29.94;54.00;97108.19;2062179;28;20450;-57
2023/07/10 09:24:16;;;;;;;1530.87;999.90;;;;;;;30.03;53.65;97117.91;2067023;28;20511;-58
2023/07/10 09:25:20;;;;;;;1834.20;999.90;;;;;;;29.84;54.13;97112.94;2065974;28;20474;-57
2023/07/10 09:26:31;;;;;;;1574.20;999.90;;;;;;;29.86;54.22;97109.06;2065780;28;20539;-57
2023/07/10 09:27:32;;;;;;;1548.63;999.90;;;;;;;30.00;54.00;97110.16;2067894;28;20930;-58
2023/07/10 09:28:38;;;;;;;1307.43;999.90;;;;;;;30.27;53.35;97106.06;2068749;28;20442;-57
2023/07/10 09:29:42;;;;;;;1785.57;999.90;;;;;;;30.80;52.63;97113.31;2075289;28;20818;-57
2023/07/10 09:31:01;;;;;;;1513.27;999.90;;;;;;;30.43;53.14;97109.63;2069813;28;20463;-58
2023/07/10 09:32:17;;;;;;;1591.47;999.90;;;;;;;30.40;52.64;97118.91;2065392;28;20431;-57
2023/07/10 09:33:20;;;;;;;1568.27;999.90;;;;;;;30.84;52.23;97111.91;2063941;28;20463;-57
2023/07/10 09:34:26;;;;;;;1078.60;971.57;;;;;;;31.29;51.18;97116.47;2065098;28;20462;-58
2023/07/10 09:35:28;;;;;;;1090.03;980.23;;;;;;;30.82;51.91;97113.13;2063343;28;20966;-57
2023/07/10 09:36:30;;;;;;;1117.10;997.80;;;;;;;30.69;52.50;97120.00;2067519;28;20484;-57
2023/07/10 09:37:36;;;;;;;1025.87;923.87;;;;;;;29.91;53.46;97112.06;2066474;28;20427;-57
2023/07/10 09:38:37;;;;;;;1223.10;999.90;;;;;;;29.74;53.92;97108.66;2064242;28;20506;-57
2023/07/10 09:39:40;;;;;;;1377.07;999.90;;;;;;;30.00;54.26;97112.84;2067039;28;20436;-57
2023/07/10 09:40:44;;;;;;;1348.13;999.90;;;;;;;29.69;54.51;97107.50;2068342;28;20475;-57
2023/07/10 09:41:47;;;;;;;1625.67;999.90;;;;;;;29.79;54.14;97118.88;2064985;28;20501;-57
2023/07/10 09:42:48;;;;;;;1578.90;999.90;;;;;;;29.64;54.59;97108.03;2064525;28;20438;-58
2023/07/10 09:43:54;;;;;;;1352.40;999.90;;;;;;;29.95;53.88;97113.41;2065573;28;20435;-57
2023/07/10 09:44:56;;;;;;;1646.37;999.90;;;;;;;30.27;53.14;97103.38;2065129;28;20770;-57
2023/07/10 09:45:59;;;;;;;1286.87;999.90;;;;;;;30.36;52.96;97114.91;2066449;28;20550;-57
2023/07/10 09:47:11;;;;;;;1053.30;945.73;;;;;;;30.41;52.34;97111.66;2070261;28;20519;-58
2023/07/10 09:48:18;;;;;;;1080.90;957.57;;;;;;;30.86;51.46;97109.03;2068427;28;20438;-58
2023/07/10 09:49:22;;;;;;;1460.60;999.90;;;;;;;31.05;51.19;97104.94;2067277;28;20428;-58
2023/07/10 09:50:24;;;;;;;1282.93;999.90;;;;;;;30.96;51.30;97104.22;2063748;28;20501;-57
2023/07/10 09:51:27;;;;;;;1466.37;999.90;;;;;;;30.50;51.74;97107.91;2068767;28;20481;-58
2023/07/10 09:52:32;;;;;;;1737.60;999.90;;;;;;;30.86;51.96;97098.28;2066177;28;20709;-57
2023/07/10 09:53:37;;;;;;;1547.70;999.90;;;;;;;30.77;51.92;97101.03;2068485;28;20459;-57
2023/07/10 09:54:39;;;;;;;1650.83;999.90;;;;;;;31.12;51.28;97097.78;2065786;28;20431;-57
2023/07/10 09:55:44;;;;;;;1867.77;999.90;;;;;;;31.25;51.01;97106.06;2064088;28;20548;-57
2023/07/10 09:56:47;;;;;;;2157.87;999.90;;;;;;;31.00;51.30;97102.81;2068338;28;20431;-57
2023/07/10 09:57:58;;;;;;;1983.33;999.90;;;;;;;31.21;50.69;97099.38;2063963;28;20523;-57
2023/07/10 09:58:59;;;;;;;2036.93;984.30;;;;;;;30.99;51.00;97103.00;2061885;28;20429;-57
2023/07/10 10:00:03;;;;;;;2078.77;949.33;;;;;;;31.13;50.28;97106.72;2065058;28;20447;-58
2023/07/10 10:01:04;;;;;;;2224.37;999.90;;;;;;;31.02;51.00;97095.38;2063232;28;20466;-57
2023/07/10 10:02:26;;;;;;;2012.10;937.53;;;;;;;31.41;50.13;97096.06;2067362;28;20481;-57
2023/07/10 10:03:38;;;;;;;931.50;389.97;;;;;;;31.50;50.29;97099.50;2065094;28;20556;-57
2023/07/10 10:04:42;;;;;;;1600.37;700.77;;;;;;;31.75;49.48;97102.69;2065406;28;20431;-58
2023/07/10 10:05:52;;;;;;;2266.67;999.90;;;;;;;31.51;50.32;97104.69;2064365;28;20963;-57
2023/07/10 10:06:56;;;;;;;2266.67;999.90;;;;;;;31.38;50.04;97102.69;2067056;28;20436;-57
2023/07/10 10:08:10;;;;;;;2266.67;999.90;;;;;;;31.31;49.86;97100.94;2066947;28;20428;-57
2023/07/10 10:09:20;;;;;;;2266.67;999.90;;;;;;;31.43;49.88;97097.56;2066454;28;20431;-57
2023/07/10 10:10:26;;;;;;;2266.67;999.90;;;;;;;31.30;49.91;97094.72;2064629;28;20502;-57
2023/07/10 10:11:34;;;;;;;2266.67;999.90;;;;;;;31.37;50.12;97100.19;2065616;28;21003;-57
2023/07/10 10:12:36;;;;;;;2266.67;999.90;;;;;;;31.27;49.80;97092.38;2064125;28;20608;-57
2023/07/10 10:14:00;;;;;;;2266.67;999.90;;;;;;;30.86;50.49;97093.69;2065951;28;20432;-57
2023/07/10 10:15:17;;;;;;;2266.67;999.90;;;;;;;31.18;50.52;97097.03;2066617;28;20467;-58
2023/07/10 10:16:26;;;;;;;2266.67;999.90;;;;;;;31.06;50.73;97096.69;2062635;28;20994;-57
2023/07/10 10:17:31;;;;;;;2266.67;999.90;;;;;;;31.23;50.76;97097.31;2065445;28;20427;-57
2023/07/10 10:19:02;;;;;;;2266.67;999.90;;;;;;;30.61;51.14;97102.06;2069343;28;20497;-57
2023/07/10 10:20:15;;;;;;;2266.67;999.90;;;;;;;30.44;52.14;97089.75;2058009;28;20442;-58
2023/07/10 10:21:19;;;;;;;2266.67;999.90;;;;;;;30.20;51.68;97090.84;2068135;28;20448;-57
2023/07/10 10:22:27;;;;;;;2266.67;999.90;;;;;;;30.33;51.69;97084.81;2062675;28;20452;-57
2023/07/10 10:23:36;;;;;;;2266.67;999.90;;;;;;;30.29;51.98;97087.03;2065155;28;20899;-57
2023/07/10 10:24:38;;;;;;;1596.07;705.53;;;;;;;30.22;52.30;97091.47;2063869;28;20464;-58
2023/07/10 10:25:45;;;;;;;2266.67;999.90;;;;;;;30.31;51.82;97095.78;2065617;28;20461;-58
2023/07/10 10:27:03;;;;;;;2266.67;999.90;;;;;;;30.17;51.17;97092.03;2066239;28;20432;-58
2023/07/10 10:28:34;;;;;;;2266.67;999.90;;;;;;;30.11;51.31;97090.06;2065992;28;20428;-57
2023/07/10 10:29:36;;;;;;;2266.67;999.90;;;;;;;30.35;50.32;97094.38;2066169;28;20476;-58
2023/07/10 10:30:48;;;;;;;2266.67;999.90;;;;;;;30.52;50.01;97089.69;2066091;28;20457;-57
2023/07/10 10:32:08;;;;;;;2266.67;999.90;;;;;;;30.37;49.87;97089.66;2065719;28;20436;-57
2023/07/10 10:33:09;;;;;;;2266.67;999.90;;;;;;;30.67;49.95;97087.00;2065537;28;20423;-58
2023/07/10 10:34:26;;;;;;;2266.67;999.90;;;;;;;31.02;48.78;97099.91;2063431;28;20502;-57
2023/07/10 10:36:12;;;;;;;2266.67;999.90;;;;;;;30.65;48.63;97091.75;2064749;28;20460;-58
2023/07/10 10:37:33;;;;;;;2266.67;999.90;;;;;;;30.54;48.76;97095.75;2058137;28;20615;-57
2023/07/10 10:38:48;;;;;;;2266.67;999.90;;;;;;;30.63;48.41;97099.19;2064562;28;20438;-58
2023/07/10 10:40:14;;;;;;;2266.67;999.90;;;;;;;30.26;49.19;97095.50;2066017;28;20486;-58
2023/07/10 10:41:43;;;;;;;2266.67;999.90;;;;;;;30.36;48.83;97097.91;2066910;28;21050;-58
2023/07/10 10:42:52;;;;;;;2266.67;999.90;;;;;;;30.85;48.41;97093.91;2065104;28;20424;-58
2023/07/10 10:44:08;;;;;;;2266.67;999.90;;;;;;;30.66;47.99;97096.09;2067145;28;20431;-58
2023/07/10 10:45:34;;;;;;;2266.67;999.90;;;;;;;30.89;48.02;97092.50;2060530;28;20936;-58
2023/07/10 10:46:49;;;;;;;2266.67;999.90;;;;;;;31.31;47.30;97095.53;2065154;28;20435;-57
2023/07/10 10:48:23;;;;;;;2266.67;999.90;;;;;;;31.35;46.54;97092.28;2064217;28;20428;-58
2023/07/10 10:49:27;;;;;;;2266.67;999.90;;;;;;;31.17;46.57;97091.84;2057246;28;20525;-58
2023/07/10 10:50:42;;;;;;;2266.67;999.90;;;;;;;31.25;46.47;97081.78;2062900;28;20471;-58
2023/07/10 10:52:02;;;;;;;2266.67;999.90;;;;;;;31.58;46.02;97094.00;2062621;28;20515;-57
2023/07/10 10:53:21;;;;;;;2266.67;999.90;;;;;;;31.17;46.86;97094.53;2065940;28;20416;-58
2023/07/10 10:54:34;;;;;;;2266.67;999.90;;;;;;;30.91;47.83;97087.75;2064060;28;21018;-57
2023/07/10 10:56:00;;;;;;;2266.67;999.90;;;;;;;31.08;47.91;97086.56;2063688;28;20467;-58
2023/07/10 10:57:47;;;;;;;2266.67;999.90;;;;;;;31.22;47.31;97087.56;2062749;28;20455;-57
2023/07/10 10:59:10;;;;;;;2266.67;999.90;;;;;;;30.41;44.99;97095.50;2050587;28;20516;-57
2023/07/10 11:00:37;;;;;;;2266.67;999.90;;;;;;;30.67;45.33;97080.81;2061291;28;20467;-57
2023/07/10 11:01:45;;;;;;;2266.67;999.90;;;;;;;31.19;45.03;97085.25;2067341;28;20881;-57
2023/07/10 11:03:12;;;;;;;2266.67;999.90;;;;;;;31.22;46.06;97084.88;2063859;28;20513;-57
2023/07/10 11:04:29;;;;;;;2266.67;999.90;;;;;;;31.16;45.61;97088.31;2067960;28;20435;-57
2023/07/10 11:05:42;;;;;;;2266.67;999.90;;;;;;;30.85;46.15;97092.03;2064913;28;20447;-57
2023/07/10 11:06:52;;;;;;;2266.67;999.90;;;;;;;30.82;45.88;97091.56;2065895;28;20504;-58
2023/07/10 11:07:56;;;;;;;2266.67;999.90;;;;;;;30.93;45.47;97091.09;2064135;28;20438;-58
2023/07/10 11:09:02;;;;;;;2266.67;999.90;;;;;;;30.98;45.90;97087.84;2062742;28;20427;-58
2023/07/10 11:10:12;;;;;;;2266.67;999.90;;;;;;;31.05;45.54;97081.50;2060914;28;20461;-58
2023/07/10 11:11:25;;;;;;;2266.67;999.90;;;;;;;31.57;45.74;97076.13;2066514;28;20447;-57
2023/07/10 11:12:30;;;;;;;2266.67;999.90;;;;;;;32.20;44.89;97075.50;2065466;28;20446;-58
2023/07/10 11:13:37;;;;;;;2266.67;999.90;;;;;;;32.64;43.79;97076.22;2064213;28;20508;-58
2023/07/10 11:14:39;;;;;;;1039.27;507.10;;;;;;;32.55;42.44;97076.38;2063672;28;20467;-57
2023/07/10 11:15:41;;;;;;;2266.67;999.90;;;;;;;32.35;43.07;97080.81;2061614;28;20858;-57
2023/07/10 11:16:44;;;;;;;1191.73;999.90;;;;;;;32.51;42.85;97080.50;2060700;28;20440;-58
2023/07/10 11:17:50;;;;;;;2266.67;999.90;;;;;;;32.08;43.67;97076.00;2059934;28;20436;-58
2023/07/10 11:18:52;;;;;;;1775.43;931.43;;;;;;;31.81;44.33;97076.78;2065073;28;20432;-57
2023/07/10 11:19:53;;;;;;;1817.70;979.83;;;;;;;31.12;45.24;97070.81;2063448;28;20506;-57
2023/07/10 11:20:56;;;;;;;2266.67;999.90;;;;;;;30.54;45.82;97078.75;2065716;28;20512;-58
2023/07/10 11:22:11;;;;;;;2266.67;999.90;;;;;;;30.98;45.74;97072.50;2067755;28;20427;-57
2023/07/10 11:23:41;;;;;;;2266.67;999.90;;;;;;;31.79;44.67;97066.19;2065703;28;20507;-57
2023/07/10 11:24:48;;;;;;;2266.67;999.90;;;;;;;31.84;44.54;97062.91;2064121;28;20428;-57
2023/07/10 11:26:01;;;;;;;2266.67;999.90;;;;;;;31.81;44.26;97064.16;2062099;28;20464;-57
2023/07/10 11:27:22;;;;;;;2266.67;999.90;;;;;;;32.09;44.29;97057.94;2061271;28;20427;-57
2023/07/10 11:28:30;;;;;;;1715.73;891.57;;;;;;;31.88;43.81;97053.41;2061871;28;20828;-57
2023/07/10 11:29:52;;;;;;;1414.93;945.97;;;;;;;31.63;43.70;97051.09;2066613;28;20546;-58
2023/07/10 11:31:31;;;;;;;1097.43;989.93;;;;;;;32.30;42.96;97056.25;2064406;28;20551;-57
2023/07/10 11:32:35;;;;;;;987.27;896.93;;;;;;;32.17;43.13;97038.88;2066907;28;20490;-57
2023/07/10 11:33:37;;;;;;;957.07;869.30;;;;;;;31.92;43.07;97046.56;2067169;28;20431;-58
2023/07/10 11:34:48;;;;;;;1016.77;918.97;;;;;;;32.21;43.21;97045.63;2065360;28;20563;-57
2023/07/10 11:36:18;;;;;;;1153.33;999.90;;;;;;;32.34;43.72;97047.56;2063582;28;20474;-57
2023/07/10 11:37:48;;;;;;;1141.50;999.90;;;;;;;32.05;43.66;97044.00;2064491;28;20423;-57
2023/07/10 11:38:57;;;;;;;1119.00;999.90;;;;;;;32.10;43.78;97039.88;2065686;28;20435;-57
2023/07/10 11:40:28;;;;;;;1200.23;999.90;;;;;;;32.96;43.03;97045.00;2062260;28;20439;-57
2023/07/10 11:41:33;;;;;;;1001.13;906.33;;;;;;;32.38;42.32;97050.72;2060681;28;20962;-57
2023/07/10 11:42:35;;;;;;;986.77;892.37;;;;;;;32.43;43.17;97042.84;2062393;28;20484;-58
2023/07/10 11:43:36;;;;;;;1186.83;999.90;;;;;;;32.99;42.50;97044.63;2063955;28;20421;-57
2023/07/10 11:44:40;;;;;;;1041.53;937.73;;;;;;;32.89;42.23;97038.75;2065710;28;20430;-58
2023/07/10 11:45:51;;;;;;;982.30;888.67;;;;;;;33.37;41.05;97033.34;2065431;28;20474;-57
2023/07/10 11:46:59;;;;;;;1387.53;999.90;;;;;;;33.46;40.14;97035.84;2065216;28;20429;-58
2023/07/10 11:48:01;;;;;;;1078.83;972.03;;;;;;;33.53;39.36;97040.25;2066623;28;20432;-58
2023/07/10 11:49:15;;;;;;;957.07;869.67;;;;;;;33.20;40.08;97032.00;2068775;28;20435;-57
2023/07/10 11:50:24;;;;;;;965.67;788.87;;;;;;;32.00;39.76;97024.00;2067943;28;20480;-57
2023/07/10 11:51:28;;;;;;;704.43;637.13;;;;;;;31.96;39.85;97031.69;2068201;28;20428;-58
2023/07/10 11:52:32;;;;;;;949.37;862.57;;;;;;;31.97;40.53;97027.91;2064693;28;20991;-57
2023/07/10 11:53:33;;;;;;;1109.83;992.63;;;;;;;31.97;41.41;97036.03;2062405;28;20427;-57
2023/07/10 11:54:35;;;;;;;1071.10;962.10;;;;;;;32.29;40.89;97028.41;2067755;28;20467;-57
2023/07/10 11:56:00;;;;;;;1130.30;999.90;;;;;;;32.42;40.59;97022.25;2064576;28;20460;-57
2023/07/10 11:57:26;;;;;;;1316.83;999.90;;;;;;;32.64;40.46;97023.00;2063597;28;20959;-57
2023/07/10 11:58:30;;;;;;;1101.57;988.10;;;;;;;32.03;40.56;97029.03;2065746;28;20897;-57
2023/07/10 11:59:34;;;;;;;1320.00;999.90;;;;;;;31.82;41.14;97024.47;2065238;28;20435;-57
2023/07/10 12:00:36;;;;;;;1187.23;999.90;;;;;;;32.08;41.24;97024.69;2057086;28;20990;-57
2023/07/10 12:01:37;;;;;;;1117.30;999.90;;;;;;;32.73;40.44;97034.47;2062406;28;20428;-57
2023/07/10 12:02:51;;;;;;;1007.27;912.50;;;;;;;32.82;39.30;97022.50;2063242;28;20479;-57
2023/07/10 12:03:55;;;;;;;7.17;3.33;;;;;;;32.64;37.72;97027.59;2060460;28;20437;-57
2023/07/10 12:05:01;;;;;;;7.00;3.50;;;;;;;32.78;36.86;97021.22;2061251;28;20432;-57
2023/07/10 12:06:17;;;;;;;7.87;3.20;;;;;;;33.12;36.84;97024.91;2064671;28;20939;-57
2023/07/10 12:07:19;;;;;;;6.63;3.00;;;;;;;32.78;37.49;97034.75;2065897;28;20442;-57
2023/07/10 12:08:23;;;;;;;6.43;3.10;;;;;;;32.69;37.57;97022.41;2065110;28;20428;-57
2023/07/10 12:09:25;;;;;;;8.73;3.80;;;;;;;32.94;37.75;97022.75;2065883;28;20492;-57
2023/07/10 12:10:30;;;;;;;6.80;3.20;;;;;;;32.68;37.68;97021.59;2066383;28;20767;-57
2023/07/10 12:11:36;;;;;;;6.27;3.60;;;;;;;33.00;37.43;97013.84;2066532;28;20776;-57
2023/07/10 12:12:37;;;;;;;6.47;3.20;;;;;;;32.72;37.80;97017.44;2067759;28;20493;-57
2023/07/10 12:13:39;;;;;;;9.90;4.03;;;;;;;33.05;37.70;97015.94;2066677;28;20443;-57
2023/07/10 12:14:40;;;;;;;6.57;3.20;;;;;;;33.41;36.97;97016.69;2065973;28;20470;-58